createdAt,value
2022-10-29T00:00:55.378Z,96.35
2022-10-29T00:03:57.219Z,97.52
2022-10-29T00:06:59.065Z,96.78
2022-10-29T00:10:00.830Z,96.47
2022-10-29T00:13:03.459Z,96.67
2022-10-29T00:17:15.948Z,97.25
2022-10-29T00:20:20.961Z,97.37
2022-10-29T00:23:22.652Z,97.01
2022-10-29T00:26:25.408Z,96.58
2022-10-29T00:29:27.132Z,97.72
2022-10-29T00:32:28.896Z,96.84
2022-10-29T00:35:30.618Z,98.34
2022-10-29T00:38:33.221Z,99.01
2022-10-29T00:41:34.926Z,98.67
2022-10-29T00:44:38.966Z,96.97
2022-10-29T00:47:40.746Z,96.28
2022-10-29T00:50:43.452Z,97.53
2022-10-29T00:54:06.856Z,96.85
2022-10-29T00:57:13.906Z,96.67
2022-10-29T01:00:17.099Z,97.05
2022-10-29T01:03:18.828Z,97.79
2022-10-29T01:06:20.916Z,98.42
2022-10-29T01:09:22.599Z,97.42
2022-10-29T01:12:59.303Z,98.60
2022-10-29T01:16:19.803Z,98.78
2022-10-29T01:20:15.958Z,99.29
2022-10-29T01:23:55.090Z,99.84
2022-10-29T01:27:17.046Z,100.00
2022-10-29T01:30:37.417Z,100.00
2022-10-29T01:33:44.822Z,100.00
2022-10-29T01:37:05.402Z,100.00
2022-10-29T01:40:26.930Z,100.00
2022-10-29T01:43:34.840Z,100.00
2022-10-29T01:47:03.383Z,100.00
2022-10-29T01:50:08.360Z,100.00
2022-10-29T01:53:10.456Z,100.00
2022-10-29T01:56:12.137Z,100.00
2022-10-29T01:59:23.061Z,100.00
2022-10-29T02:02:35.577Z,100.00
2022-10-29T02:05:46.294Z,100.00
2022-10-29T02:08:47.919Z,99.45
2022-10-29T02:12:24.886Z,98.91
2022-10-29T02:15:37.513Z,98.62
2022-10-29T02:18:46.375Z,97.67
2022-10-29T02:21:50.769Z,98.24
2022-10-29T02:24:52.466Z,98.09
2022-10-29T02:27:54.294Z,99.54
2022-10-29T02:30:56.229Z,99.87
2022-10-29T02:33:57.971Z,98.35
2022-10-29T02:36:59.617Z,98.52
2022-10-29T02:40:01.273Z,99.38
2022-10-29T02:43:02.999Z,98.99
2022-10-29T02:46:18.809Z,98.57
2022-10-29T02:49:20.528Z,99.61
2022-10-29T02:52:22.157Z,99.52
2022-10-29T02:55:23.849Z,99.26
2022-10-29T02:58:25.505Z,99.04
2022-10-29T03:01:27.394Z,100.00
2022-10-29T03:04:29.249Z,99.49
2022-10-29T03:07:35.321Z,99.32
2022-10-29T03:10:37.126Z,98.80
2022-10-29T03:13:39.283Z,98.99
2022-10-29T03:16:40.987Z,100.00
2022-10-29T03:19:42.634Z,100.00
2022-10-29T03:22:44.510Z,100.00
2022-10-29T03:25:55.559Z,100.00
2022-10-29T03:28:57.971Z,100.00
2022-10-29T03:31:59.652Z,100.00
2022-10-29T03:35:01.352Z,100.00
2022-10-29T03:38:03.100Z,100.00
2022-10-29T03:41:10.319Z,100.00
2022-10-29T03:44:12.112Z,100.00
2022-10-29T03:47:13.855Z,100.00
2022-10-29T03:50:15.888Z,100.00
2022-10-29T03:53:17.667Z,100.00
2022-10-29T03:56:19.387Z,100.00
2022-10-29T03:59:21.138Z,100.00
2022-10-29T04:02:23.597Z,100.00
2022-10-29T04:05:25.394Z,100.00
2022-10-29T04:08:27.832Z,100.00
2022-10-29T04:11:29.584Z,100.00
2022-10-29T04:14:31.350Z,100.00
2022-10-29T04:17:33.107Z,100.00
2022-10-29T04:21:26.591Z,100.00
2022-10-29T04:30:40.675Z,100.00
2022-10-29T04:33:42.303Z,100.00
2022-10-29T04:36:43.999Z,100.00
2022-10-29T04:39:45.699Z,100.00
2022-10-29T04:42:47.385Z,100.00
2022-10-29T04:45:53.356Z,100.00
2022-10-29T04:48:55.166Z,100.00
2022-10-29T04:51:56.948Z,100.00
2022-10-29T04:54:58.575Z,100.00
2022-10-29T04:58:00.268Z,100.00
2022-10-29T05:01:03.047Z,100.00
2022-10-29T05:04:05.107Z,100.00
2022-10-29T05:07:06.969Z,100.00
2022-10-29T05:10:08.964Z,100.00
2022-10-29T05:13:12.136Z,100.00
2022-10-29T05:16:13.950Z,100.00
2022-10-29T05:19:15.760Z,100.00
2022-10-29T05:22:17.564Z,100.00
2022-10-29T05:25:19.342Z,100.00
2022-10-29T05:28:22.641Z,100.00
2022-10-29T05:31:24.543Z,100.00
2022-10-29T05:34:26.616Z,100.00
2022-10-29T05:37:28.457Z,100.00
2022-10-29T05:40:30.702Z,100.00
2022-10-29T05:43:32.605Z,100.00
2022-10-29T05:46:34.613Z,100.00
2022-10-29T05:49:36.554Z,100.00
2022-10-29T05:52:38.970Z,100.00
2022-10-29T05:55:41.671Z,100.00
2022-10-29T05:58:43.526Z,100.00
2022-10-29T06:01:45.610Z,100.00
2022-10-29T06:04:47.750Z,100.00
2022-10-29T06:08:00.653Z,100.00
2022-10-29T06:11:03.785Z,100.00
2022-10-29T06:14:05.800Z,100.00
2022-10-29T06:17:07.866Z,100.00
2022-10-29T06:20:10.779Z,100.00
2022-10-29T06:23:12.648Z,100.00
2022-10-29T06:26:14.471Z,100.00
2022-10-29T06:29:16.308Z,100.00
2022-10-29T06:32:18.225Z,100.00
2022-10-29T06:35:20.236Z,100.00
2022-10-29T06:38:22.243Z,100.00
2022-10-29T06:41:27.301Z,100.00
2022-10-29T06:44:29.216Z,100.00
2022-10-29T06:47:31.628Z,100.00
2022-10-29T06:50:33.945Z,100.00
2022-10-29T06:53:35.850Z,100.00
2022-10-29T06:56:37.823Z,100.00
2022-10-29T06:59:39.646Z,100.00
2022-10-29T07:02:41.493Z,100.00
2022-10-29T07:05:43.662Z,100.00
2022-10-29T07:08:45.558Z,100.00
2022-10-29T07:11:48.095Z,100.00
2022-10-29T07:14:49.912Z,100.00
2022-10-29T07:18:06.723Z,100.00
2022-10-29T07:21:09.866Z,100.00
2022-10-29T07:24:11.692Z,100.00
2022-10-29T07:27:13.538Z,100.00
2022-10-29T07:30:16.101Z,100.00
2022-10-29T07:33:18.160Z,100.00
2022-10-29T07:36:20.088Z,100.00
2022-10-29T07:39:22.807Z,100.00
2022-10-29T07:42:25.121Z,100.00
2022-10-29T07:45:27.604Z,100.00
2022-10-29T07:48:30.359Z,100.00
2022-10-29T07:51:32.469Z,100.00
2022-10-29T07:54:34.383Z,100.00
2022-10-29T07:57:36.544Z,100.00
2022-10-29T08:00:40.657Z,100.00
2022-10-29T08:03:42.618Z,100.00
2022-10-29T08:06:44.677Z,100.00
2022-10-29T08:09:46.661Z,100.00
2022-10-29T08:12:52.714Z,100.00
2022-10-29T08:15:55.373Z,100.00
2022-10-29T08:18:57.384Z,100.00
2022-10-29T08:21:59.395Z,100.00
2022-10-29T08:25:01.236Z,100.00
2022-10-29T08:28:04.952Z,100.00
2022-10-29T08:31:07.155Z,100.00
2022-10-29T08:34:11.197Z,100.00
2022-10-29T08:37:13.337Z,100.00
2022-10-29T08:40:27.679Z,100.00
2022-10-29T08:43:35.691Z,100.00
2022-10-29T08:46:42.675Z,100.00
2022-10-29T08:50:10.127Z,100.00
2022-10-29T08:53:23.239Z,100.00
2022-10-29T08:56:30.055Z,100.00
2022-10-29T08:59:37.566Z,99.87
2022-10-29T09:02:40.456Z,97.39
2022-10-29T09:06:11.648Z,94.74
2022-10-29T09:09:16.533Z,96.46
2022-10-29T09:13:00.360Z,95.72
2022-10-29T09:16:27.099Z,94.42
2022-10-29T09:19:33.720Z,95.67
2022-10-29T09:22:47.890Z,93.95
2022-10-29T09:25:56.765Z,94.53
2022-10-29T09:29:34.217Z,94.12
2022-10-29T09:32:43.588Z,95.28
2022-10-29T09:35:48.251Z,95.67
2022-10-29T09:39:03.253Z,96.81
2022-10-29T09:42:13.325Z,98.13
2022-10-29T09:45:17.945Z,99.53
2022-10-29T09:48:25.830Z,99.12
2022-10-29T09:51:50.671Z,97.38
2022-10-29T09:54:54.005Z,96.31
2022-10-29T09:57:57.747Z,95.53
2022-10-29T10:00:59.773Z,96.35
2022-10-29T10:04:11.764Z,96.47
2022-10-29T10:07:21.433Z,95.53
2022-10-29T10:10:24.508Z,97.87
2022-10-29T10:13:32.017Z,96.29
2022-10-29T10:16:34.341Z,96.01
2022-10-29T10:19:43.177Z,95.71
2022-10-29T10:22:48.371Z,96.30
2022-10-29T10:25:52.100Z,94.71
2022-10-29T10:29:14.699Z,94.24
2022-10-29T10:32:17.785Z,94.67
2022-10-29T10:35:28.544Z,94.79
2022-10-29T10:38:41.117Z,94.26
2022-10-29T10:41:43.403Z,94.26
2022-10-29T10:45:14.608Z,95.09
2022-10-29T10:48:18.241Z,95.05
2022-10-29T10:51:25.852Z,96.11
2022-10-29T10:54:42.411Z,97.33
2022-10-29T10:57:51.234Z,97.97
2022-10-29T11:00:59.888Z,96.88
2022-10-29T11:04:14.097Z,97.70
2022-10-29T11:07:17.931Z,96.36
2022-10-29T11:10:21.457Z,96.51
2022-10-29T11:13:25.756Z,96.26
2022-10-29T11:16:46.412Z,97.03
2022-10-29T11:19:52.311Z,98.19
2022-10-29T11:23:12.835Z,98.11
2022-10-29T11:26:22.599Z,98.08
2022-10-29T11:29:37.012Z,96.46
2022-10-29T11:33:03.769Z,95.97
2022-10-29T11:36:20.595Z,95.42
2022-10-29T11:39:32.518Z,94.56
2022-10-29T11:42:36.816Z,94.53
2022-10-29T11:45:54.701Z,96.33
2022-10-29T11:49:06.787Z,96.65
2022-10-29T11:52:11.871Z,97.27
2022-10-29T11:55:20.452Z,97.81
2022-10-29T11:58:34.285Z,97.75
2022-10-29T12:02:00.301Z,97.04
2022-10-29T12:05:37.659Z,97.20
2022-10-29T12:08:43.034Z,96.38
2022-10-29T12:11:51.462Z,94.89
2022-10-29T12:15:30.586Z,93.63
2022-10-29T12:18:45.279Z,93.07
2022-10-29T12:21:55.528Z,91.72
2022-10-29T12:25:15.413Z,91.15
2022-10-29T12:28:39.165Z,91.30
2022-10-29T12:31:56.119Z,91.20
2022-10-29T12:35:18.658Z,92.59
2022-10-29T12:38:43.205Z,92.70
2022-10-29T12:41:48.881Z,94.06
2022-10-29T12:45:07.178Z,93.37
2022-10-29T12:48:15.225Z,93.38
2022-10-29T12:51:28.300Z,93.13
2022-10-29T12:54:39.353Z,92.23
2022-10-29T12:57:41.444Z,93.20
2022-10-29T13:00:48.204Z,92.97
2022-10-29T13:03:56.586Z,93.54
2022-10-29T13:07:05.713Z,92.57
2022-10-29T13:10:28.701Z,91.82
2022-10-29T13:13:39.055Z,92.49
2022-10-29T13:16:41.246Z,92.30
2022-10-29T13:20:01.459Z,92.99
2022-10-29T13:23:11.204Z,93.88
2022-10-29T13:26:13.387Z,95.55
2022-10-29T13:29:42.325Z,96.86
2022-10-29T13:32:44.659Z,96.19
2022-10-29T13:35:52.646Z,95.36
2022-10-29T13:39:05.645Z,95.70
2022-10-29T13:42:11.985Z,96.98
2022-10-29T13:45:14.267Z,96.97
2022-10-29T13:48:35.605Z,96.44
2022-10-29T13:51:43.320Z,97.51
2022-10-29T13:55:01.782Z,98.72
2022-10-29T13:58:03.825Z,97.08
2022-10-29T14:01:09.840Z,97.04
2022-10-29T14:04:22.568Z,97.80
2022-10-29T14:07:31.369Z,98.28
2022-10-29T14:10:45.480Z,96.82
2022-10-29T14:13:49.528Z,97.38
2022-10-29T14:17:13.129Z,96.86
2022-10-29T14:20:27.307Z,98.69
2022-10-29T14:23:30.980Z,97.19
2022-10-29T14:26:35.430Z,98.35
2022-10-29T14:29:38.617Z,97.94
2022-10-29T14:32:41.848Z,97.99
2022-10-29T14:35:45.599Z,98.17
2022-10-29T14:39:04.424Z,97.89
2022-10-29T14:42:40.226Z,98.01
2022-10-29T14:45:42.869Z,98.04
2022-10-29T14:49:22.174Z,97.99
2022-10-29T14:52:55.260Z,98.44
2022-10-29T14:56:02.567Z,98.42
2022-10-29T14:59:13.715Z,98.28
2022-10-29T15:05:40.822Z,97.93
2022-10-29T15:08:44.633Z,97.37
2022-10-29T15:12:03.282Z,98.10
2022-10-29T15:15:25.929Z,97.73
2022-10-29T15:18:28.260Z,98.30
2022-10-29T15:21:32.579Z,99.21
2022-10-29T15:24:34.963Z,98.75
2022-10-29T15:27:38.398Z,98.97
2022-10-29T15:30:40.432Z,98.98
2022-10-29T15:33:42.684Z,99.46
2022-10-29T15:36:49.805Z,99.07
2022-10-29T15:40:10.477Z,99.71
2022-10-29T15:43:29.905Z,100.00
2022-10-29T15:46:36.401Z,99.62
2022-10-29T15:49:38.401Z,99.08
2022-10-29T15:53:07.971Z,99.42
2022-10-29T15:56:13.946Z,99.19
2022-10-29T15:59:19.042Z,99.08
2022-10-29T16:02:21.221Z,100.00
2022-10-29T16:05:23.266Z,100.00
2022-10-29T16:08:28.506Z,100.00
2022-10-29T16:11:30.590Z,100.00
2022-10-29T16:14:32.486Z,100.00
2022-10-29T16:17:34.573Z,100.00
2022-10-29T16:20:37.177Z,99.72
2022-10-29T16:23:39.389Z,99.42
2022-10-29T16:26:41.761Z,98.73
2022-10-29T16:29:44.224Z,98.98
2022-10-29T16:32:46.581Z,100.00
2022-10-29T16:35:48.790Z,100.00
2022-10-29T16:38:50.860Z,99.97
2022-10-29T16:41:52.737Z,99.45
2022-10-29T16:44:54.700Z,98.93
2022-10-29T16:47:57.785Z,99.65
2022-10-29T16:51:00.282Z,99.22
2022-10-29T16:54:02.285Z,98.85
2022-10-29T16:57:04.211Z,98.54
2022-10-29T17:00:07.311Z,98.38
2022-10-29T17:03:12.007Z,98.79
2022-10-29T17:06:14.872Z,98.46
2022-10-29T17:09:18.144Z,98.71
2022-10-29T17:12:22.729Z,98.68
2022-10-29T17:15:24.759Z,99.16
2022-10-29T17:18:26.728Z,98.39
2022-10-29T17:21:33.714Z,97.49
2022-10-29T17:24:35.610Z,98.88
2022-10-29T17:27:41.832Z,99.66
2022-10-29T17:30:43.781Z,100.00
2022-10-29T17:33:45.910Z,100.00
2022-10-29T17:36:49.811Z,100.00
2022-10-29T17:39:51.845Z,99.27
2022-10-29T17:42:54.185Z,99.49
2022-10-29T17:46:00.491Z,99.44
2022-10-29T17:49:03.032Z,98.76
2022-10-29T17:52:05.473Z,98.88
2022-10-29T17:55:08.845Z,98.29
2022-10-29T17:58:15.459Z,97.85
2022-10-29T18:01:22.632Z,97.19
2022-10-29T18:04:24.638Z,98.71
2022-10-29T18:07:26.625Z,98.86
2022-10-29T18:10:29.163Z,98.51
2022-10-29T18:13:33.136Z,98.33
2022-10-29T18:16:35.361Z,98.19
2022-10-29T18:19:37.406Z,98.19
2022-10-29T18:22:39.402Z,98.90
2022-10-29T18:25:41.284Z,98.33
2022-10-29T18:28:43.675Z,98.45
2022-10-29T18:31:47.267Z,98.29
2022-10-29T18:34:49.499Z,98.63
2022-10-29T18:37:52.843Z,97.25
2022-10-29T18:40:56.271Z,97.79
2022-10-29T18:43:59.467Z,97.75
2022-10-29T18:47:01.691Z,97.65
2022-10-29T18:50:03.870Z,97.25
2022-10-29T18:53:05.886Z,97.85
2022-10-29T18:56:13.309Z,98.18
2022-10-29T18:59:15.515Z,97.52
2022-10-29T19:02:17.572Z,96.50
2022-10-29T19:05:20.054Z,96.97
2022-10-29T19:08:22.416Z,97.46
2022-10-29T19:11:26.047Z,97.17
2022-10-29T19:14:28.411Z,96.71
2022-10-29T19:17:30.675Z,96.51
2022-10-29T19:20:35.722Z,96.55
2022-10-29T19:23:38.223Z,96.17
2022-10-29T19:26:40.756Z,96.89
2022-10-29T19:29:42.661Z,96.95
2022-10-29T19:32:44.941Z,96.19
2022-10-29T19:35:46.821Z,97.54
2022-10-29T19:38:49.204Z,97.26
2022-10-29T19:41:51.693Z,96.83
2022-10-29T19:44:56.397Z,96.73
2022-10-29T19:47:59.262Z,95.48
2022-10-29T19:51:02.937Z,96.52
2022-10-29T19:54:07.662Z,95.51
2022-10-29T19:57:10.275Z,95.81
2022-10-29T20:00:16.696Z,96.49
2022-10-29T20:03:19.773Z,96.38
2022-10-29T20:06:22.011Z,96.12
2022-10-29T20:09:24.310Z,96.85
2022-10-29T20:12:26.388Z,96.29
2022-10-29T20:15:28.319Z,96.41
2022-10-29T20:18:30.458Z,95.84
2022-10-29T20:21:32.493Z,95.34
2022-10-29T20:24:34.890Z,95.80
2022-10-29T20:27:36.890Z,95.46
2022-10-29T20:30:39.476Z,95.99
2022-10-29T20:33:42.300Z,95.45
2022-10-29T20:36:46.767Z,96.00
2022-10-29T20:39:49.197Z,95.89
2022-10-29T20:42:51.358Z,95.03
2022-10-29T20:45:53.493Z,95.08
2022-10-29T20:48:55.773Z,95.28
2022-10-29T20:51:58.024Z,95.32
2022-10-29T20:54:59.909Z,95.45
2022-10-29T20:58:02.226Z,95.63
2022-10-29T21:01:08.216Z,95.65
2022-10-29T21:04:10.215Z,95.51
2022-10-29T21:07:12.320Z,95.21
2022-10-29T21:10:14.559Z,95.45
2022-10-29T21:13:16.783Z,95.84
2022-10-29T21:16:22.404Z,96.48
2022-10-29T21:19:26.081Z,96.53
2022-10-29T21:22:27.894Z,96.44
2022-10-29T21:25:29.810Z,97.03
2022-10-29T21:28:32.287Z,96.61
2022-10-29T21:31:34.281Z,96.21
2022-10-29T21:34:36.797Z,96.99
2022-10-29T21:37:39.340Z,97.16
2022-10-29T21:40:42.263Z,97.37
2022-10-29T21:43:44.425Z,97.78
2022-10-29T21:46:46.550Z,97.28
2022-10-29T21:49:51.982Z,97.44
2022-10-29T21:52:56.954Z,96.55
2022-10-29T21:56:01.134Z,96.88
2022-10-29T21:59:03.207Z,96.64
2022-10-29T22:02:05.284Z,97.35
2022-10-29T22:05:07.567Z,97.27
2022-10-29T22:08:09.607Z,97.44
2022-10-29T22:11:12.396Z,97.01
2022-10-29T22:14:14.348Z,97.52
2022-10-29T22:17:16.350Z,97.71
2022-10-29T22:20:18.332Z,97.44
2022-10-29T22:23:20.400Z,96.88
2022-10-29T22:26:27.378Z,97.28
2022-10-29T22:29:29.073Z,97.43
2022-10-29T22:32:31.132Z,97.05
2022-10-29T22:35:33.162Z,97.13
2022-10-29T22:38:35.282Z,97.91
2022-10-29T22:41:37.170Z,98.21
2022-10-29T22:44:39.021Z,98.17
2022-10-29T22:47:40.852Z,98.43
2022-10-29T22:50:42.720Z,97.68
2022-10-29T22:53:45.835Z,97.31
2022-10-29T22:56:47.696Z,96.43
2022-10-29T22:59:49.493Z,96.96
2022-10-29T23:02:51.347Z,97.47
2022-10-29T23:05:58.135Z,97.73
2022-10-29T23:09:01.797Z,96.56
2022-10-29T23:12:03.812Z,96.60
2022-10-29T23:15:06.116Z,96.38
2022-10-29T23:18:07.927Z,95.53
2022-10-29T23:21:09.972Z,97.05
2022-10-29T23:24:11.838Z,97.79
2022-10-29T23:27:13.708Z,99.17
2022-10-29T23:30:15.489Z,99.39
2022-10-29T23:33:17.247Z,99.58
2022-10-29T23:36:20.403Z,99.89
2022-10-29T23:39:22.210Z,98.75
2022-10-29T23:42:24.132Z,98.74
2022-10-29T23:45:25.870Z,98.57
2022-10-29T23:48:27.858Z,99.26
2022-10-29T23:51:29.649Z,99.66
2022-10-29T23:54:31.375Z,100.00
2022-10-29T23:57:33.298Z,100.00
